LJMB/MBX METAR and TAF weather

Enter ICAO airport designator
Station Type Date Time Source
LJMB METAR 2023/10/03 11:00 UTC NOAA

LJMB 031100Z 19005KT 140V240 CAVOK 24/16 Q1020


Station Type Date Time Source
LJMB Decoded METAR 2023/10/03 11:00 UTC NOAA

Maribor / Slivnica, Slovenia (LJMB) 46-29N 015-41E 265M
Oct 03, 2023 - 07:00 AM EDT / 2023.10.03 1100 UTC
Wind: from the S (190 degrees) at 6 MPH (5 KT) (direction variable):0
Visibility: greater than 7 mile(s):0
Temperature: 75 F (24 C)
Dew Point: 60 F (16 C)
Relative Humidity: 60%
Pressure (altimeter): 30.12 in. Hg (1020 hPa)
ob: LJMB 031100Z 19005KT 140V240 CAVOK 24/16 Q1020
cycle: 11

Station Type Date Time Source
LJMB TAF 2023/10/03 12:06 UTC NOAA

TAF LJMB 031100Z 0312/0412 19007KT CAVOK
BECMG 0323/0401 36010KT
BECMG 0406/0408 16004KT PROB30
TEMPO 0407/0412 SHRA BKN040TCU

Example: see airport list